Blue Gap, Arizona
Current Conditions -  °F | °C
As of 4:53 PM on Saturday 20 Dec 2014 (Local Time) from KRQE Reporting Station
Clear Clear  
Wind Chill: 38°   Ceiling: Unl
Heat Index: 42°   Visibility: 10mi
Dew Point: 24°   Wind: 6mph
Humidity: 49%   Direction: 300°WNW
Pressure: 30.12"   Gusts: NA
Location:  36.07°N, 110.08°W
Report Text: KRQE 202353Z AUTO 30005KT 10SM CLR 06/M04 A3012 RMK AO2 SLP183 T00561044 10083 20033 53008 TSNO
Loading
Personal Weather Stations






























Interactive Weather Map New forecast layout! Learn more

10-Day Weather Forecast

Advertisements
Track Severe Weather on mobile